createdAt,value
2019-05-17T00:01:11.816Z,18.86
2019-05-17T00:03:39.584Z,18.85
2019-05-17T00:06:07.359Z,18.86
2019-05-17T00:08:38.055Z,18.87
2019-05-17T00:11:06.670Z,18.88
2019-05-17T00:13:34.434Z,18.89
2019-05-17T00:16:02.119Z,18.88
2019-05-17T00:18:29.952Z,18.86
2019-05-17T00:20:57.581Z,18.86
2019-05-17T00:23:26.928Z,18.84
2019-05-17T00:25:56.393Z,18.82
2019-05-17T00:28:26.735Z,18.82
2019-05-17T00:30:54.157Z,18.81
2019-05-17T00:33:21.683Z,18.81
2019-05-17T00:35:49.596Z,18.78
2019-05-17T00:38:17.158Z,18.78
2019-05-17T00:40:47.014Z,18.78
2019-05-17T00:43:16.740Z,18.79
2019-05-17T00:45:46.673Z,18.77
2019-05-17T00:48:14.044Z,18.77
2019-05-17T00:50:41.966Z,18.78
2019-05-17T00:53:09.539Z,18.81
2019-05-17T00:55:37.485Z,18.81
2019-05-17T00:58:06.670Z,18.80
2019-05-17T01:00:37.606Z,18.80
2019-05-17T01:03:06.802Z,18.79
2019-05-17T01:05:36.663Z,18.78
2019-05-17T01:08:04.070Z,18.76
2019-05-17T01:10:31.879Z,18.77
2019-05-17T01:12:59.751Z,18.77
2019-05-17T01:15:27.728Z,18.76
2019-05-17T01:17:56.295Z,18.75
2019-05-17T01:20:24.056Z,18.73
2019-05-17T01:22:51.854Z,18.72
2019-05-17T01:25:19.623Z,18.73
2019-05-17T01:27:47.669Z,18.73
2019-05-17T01:30:17.463Z,18.72
2019-05-17T01:32:46.440Z,18.73
2019-05-17T01:35:16.485Z,18.70
2019-05-17T01:37:43.945Z,18.70
2019-05-17T01:40:11.866Z,18.68
2019-05-17T01:42:39.608Z,18.67
2019-05-17T01:45:07.536Z,18.67
2019-05-17T01:47:36.832Z,18.66
2019-05-17T01:50:06.846Z,18.64
2019-05-17T01:52:36.773Z,18.64
2019-05-17T01:55:06.528Z,18.64
2019-05-17T01:57:36.763Z,18.63
2019-05-17T02:00:06.367Z,18.64
2019-05-17T02:02:37.561Z,18.63
2019-05-17T02:05:06.485Z,18.61
2019-05-17T02:07:34.391Z,18.58
2019-05-17T02:10:02.193Z,18.59
2019-05-17T02:12:29.979Z,18.58
2019-05-17T02:14:57.773Z,18.57
2019-05-17T02:17:26.582Z,18.56
2019-05-17T02:19:54.297Z,18.60
2019-05-17T02:22:22.004Z,18.59
2019-05-17T02:24:49.670Z,18.58
2019-05-17T02:27:17.572Z,18.59
2019-05-17T02:29:45.376Z,18.58
2019-05-17T02:32:13.218Z,18.58
2019-05-17T02:34:43.096Z,18.55
2019-05-17T02:37:13.422Z,18.58
2019-05-17T02:39:57.088Z,18.57
2019-05-17T02:42:13.537Z,18.56
2019-05-17T02:44:39.404Z,18.54
2019-05-17T02:47:07.085Z,18.55
2019-05-17T02:49:35.068Z,18.54
2019-05-17T02:52:03.379Z,18.53
2019-05-17T02:54:32.891Z,18.50
2019-05-17T02:57:03.251Z,18.49
2019-05-17T02:59:33.168Z,18.50
2019-05-17T03:02:03.160Z,18.49
2019-05-17T03:04:32.656Z,18.48
2019-05-17T03:06:59.626Z,18.47
2019-05-17T03:09:27.350Z,18.47
2019-05-17T03:11:57.077Z,18.46
2019-05-17T03:14:24.677Z,18.45
2019-05-17T03:16:53.684Z,18.46
2019-05-17T03:19:23.595Z,18.45
2019-05-17T03:21:53.557Z,18.46
2019-05-17T03:24:22.663Z,18.44
2019-05-17T03:26:52.655Z,18.44
2019-05-17T03:29:22.742Z,18.42
2019-05-17T03:31:58.088Z,18.42
2019-05-17T03:34:19.622Z,18.41
2019-05-17T03:36:47.615Z,18.39
2019-05-17T03:39:15.470Z,18.40
2019-05-17T03:41:43.339Z,18.40
2019-05-17T03:44:13.601Z,18.40
2019-05-17T03:46:42.541Z,18.39
2019-05-17T03:49:13.060Z,18.43
2019-05-17T03:51:42.607Z,18.49
2019-05-17T03:54:13.484Z,18.55
2019-05-17T03:56:42.524Z,18.54
2019-05-17T03:59:12.626Z,18.54
2019-05-17T04:01:39.163Z,18.54
2019-05-17T04:04:07.055Z,18.54
2019-05-17T04:06:34.676Z,18.54
2019-05-17T04:09:03.883Z,18.50
2019-05-17T04:11:36.012Z,18.47
2019-05-17T04:14:03.062Z,18.46
2019-05-17T04:16:33.684Z,18.49
2019-05-17T04:19:02.825Z,18.48
2019-05-17T04:21:29.657Z,18.46
2019-05-17T04:23:57.466Z,18.46
2019-05-17T04:26:25.042Z,18.46
2019-05-17T04:28:53.468Z,18.45
2019-05-17T04:31:22.830Z,18.47
2019-05-17T04:33:53.632Z,18.47
2019-05-17T04:36:22.527Z,18.52
2019-05-17T04:38:52.596Z,18.54
2019-05-17T04:41:39.764Z,18.55
2019-05-17T04:43:53.168Z,18.52
2019-05-17T04:46:23.531Z,18.47
2019-05-17T04:48:53.328Z,18.45
2019-05-17T04:51:23.016Z,18.42
2019-05-17T04:53:52.761Z,18.40
2019-05-17T04:56:22.471Z,18.37
2019-05-17T04:58:50.317Z,18.36
2019-05-17T05:01:18.530Z,18.38
2019-05-17T05:03:46.152Z,18.39
2019-05-17T05:06:13.763Z,18.38
2019-05-17T05:08:42.512Z,18.44
2019-05-17T05:11:12.675Z,18.43
2019-05-17T05:13:42.641Z,18.42
2019-05-17T05:16:09.589Z,18.43
2019-05-17T05:18:37.383Z,18.41
2019-05-17T05:21:05.089Z,18.41
2019-05-17T05:23:32.960Z,18.41
2019-05-17T05:26:02.926Z,18.45
2019-05-17T05:28:31.817Z,18.44
2019-05-17T05:31:01.657Z,18.44
2019-05-17T05:33:28.894Z,18.42
2019-05-17T05:35:56.725Z,18.44
2019-05-17T05:38:24.425Z,18.45
2019-05-17T05:40:52.324Z,18.49
2019-05-17T05:43:22.368Z,18.51
2019-05-17T05:45:49.679Z,18.56
2019-05-17T05:48:17.407Z,18.57
2019-05-17T05:50:44.990Z,18.57
2019-05-17T05:53:13.201Z,18.59
2019-05-17T05:55:42.765Z,18.61
2019-05-17T05:58:12.048Z,18.62
2019-05-17T06:00:42.767Z,18.64
2019-05-17T06:03:11.930Z,18.68
2019-05-17T06:05:41.952Z,18.65
2019-05-17T06:08:09.019Z,18.66
2019-05-17T06:10:39.453Z,18.71
2019-05-17T06:13:06.456Z,18.72
2019-05-17T06:15:34.347Z,18.69
2019-05-17T06:18:03.090Z,18.72
2019-05-17T06:20:32.402Z,18.78
2019-05-17T06:23:02.404Z,18.79
2019-05-17T06:25:29.390Z,18.84
2019-05-17T06:27:57.202Z,18.87
2019-05-17T06:30:24.739Z,18.88
2019-05-17T06:32:52.238Z,18.89
2019-05-17T06:35:21.749Z,18.89
2019-05-17T06:37:49.586Z,18.89
2019-05-17T06:40:17.357Z,18.89
2019-05-17T06:42:45.820Z,18.89
2019-05-17T06:45:14.620Z,18.88
2019-05-17T06:47:42.902Z,18.88
2019-05-17T06:50:10.785Z,18.90
2019-05-17T06:52:38.219Z,18.90
2019-05-17T06:55:06.099Z,18.90
2019-05-17T06:57:33.669Z,18.89
2019-05-17T07:00:03.172Z,18.88
2019-05-17T07:02:31.081Z,18.87
2019-05-17T07:05:02.059Z,18.86
2019-05-17T07:07:30.381Z,18.86
2019-05-17T07:10:00.619Z,18.86
2019-05-17T07:12:27.718Z,18.86
2019-05-17T07:14:58.210Z,18.88
2019-05-17T07:17:24.857Z,18.93
2019-05-17T07:19:53.355Z,18.95
2019-05-17T07:22:21.388Z,18.98
2019-05-17T07:24:50.307Z,19.01
2019-05-17T07:27:19.347Z,19.00
2019-05-17T07:29:47.177Z,19.02
2019-05-17T07:32:14.651Z,19.00
2019-05-17T07:34:42.104Z,18.97
2019-05-17T07:37:10.554Z,18.94
2019-05-17T07:39:41.628Z,19.01
2019-05-17T07:42:09.665Z,19.00
2019-05-17T07:44:37.424Z,18.96
2019-05-17T07:47:05.152Z,18.94
2019-05-17T07:49:32.918Z,18.94
2019-05-17T07:52:00.843Z,18.96
2019-05-17T07:54:30.328Z,18.98
2019-05-17T07:57:00.225Z,18.97
2019-05-17T07:59:29.338Z,18.99
2019-05-17T08:01:57.084Z,19.01
2019-05-17T08:04:24.753Z,19.02
2019-05-17T08:06:52.521Z,19.03
2019-05-17T08:09:20.496Z,19.00
2019-05-17T08:11:50.128Z,19.00
2019-05-17T08:14:27.550Z,19.05
2019-05-17T08:16:47.183Z,19.05
2019-05-17T08:19:14.893Z,19.05
2019-05-17T08:21:42.722Z,19.07
2019-05-17T08:24:10.624Z,19.06
2019-05-17T08:26:40.244Z,19.10
2019-05-17T08:29:09.836Z,19.12
2019-05-17T08:31:36.890Z,19.12
2019-05-17T08:34:04.345Z,19.10
2019-05-17T08:36:31.832Z,19.11
2019-05-17T08:38:59.732Z,19.13
2019-05-17T08:41:30.701Z,19.12
2019-05-17T08:43:56.761Z,19.14
2019-05-17T08:46:24.240Z,19.15
2019-05-17T08:48:51.695Z,19.16
2019-05-17T08:51:19.725Z,19.21
2019-05-17T08:53:49.281Z,19.27
2019-05-17T08:56:16.747Z,19.35
2019-05-17T08:58:44.187Z,19.38
2019-05-17T09:01:11.704Z,19.44
2019-05-17T09:03:41.218Z,19.45
2019-05-17T09:06:12.002Z,19.50
2019-05-17T09:08:40.367Z,19.54
2019-05-17T09:11:09.888Z,19.55
2019-05-17T09:13:37.227Z,19.56
2019-05-17T09:16:05.267Z,19.59
2019-05-17T09:18:32.690Z,19.61
2019-05-17T09:21:00.596Z,19.60
2019-05-17T09:23:30.207Z,19.63
2019-05-17T09:25:59.377Z,19.68
2019-05-17T09:28:26.783Z,19.72
2019-05-17T09:30:54.274Z,19.77
2019-05-17T09:33:21.768Z,19.78
2019-05-17T09:35:49.955Z,19.84
2019-05-17T09:38:20.137Z,19.84
2019-05-17T09:40:47.123Z,19.85
2019-05-17T09:43:16.521Z,19.88
2019-05-17T09:45:43.984Z,19.91
2019-05-17T09:48:11.419Z,19.95
2019-05-17T09:50:39.823Z,19.97
2019-05-17T09:53:07.737Z,19.99
2019-05-17T09:55:35.198Z,20.02
2019-05-17T09:58:02.687Z,20.05
2019-05-17T10:00:30.842Z,20.10
2019-05-17T10:03:00.033Z,20.13
2019-05-17T10:05:27.638Z,20.15
2019-05-17T10:07:55.375Z,20.18
2019-05-17T10:10:22.829Z,20.20
2019-05-17T10:12:50.342Z,20.22
2019-05-17T10:15:20.470Z,20.22
2019-05-17T10:17:47.251Z,20.22
2019-05-17T10:20:14.873Z,20.25
2019-05-17T10:22:42.268Z,20.26
2019-05-17T10:25:09.956Z,20.32
2019-05-17T10:27:37.540Z,20.37
2019-05-17T10:30:05.112Z,20.40
2019-05-17T10:32:32.595Z,20.41
2019-05-17T10:35:00.439Z,20.46
2019-05-17T10:37:30.192Z,20.48
2019-05-17T10:39:57.478Z,20.49
2019-05-17T10:42:24.984Z,20.52
2019-05-17T10:44:54.734Z,20.60
2019-05-17T10:47:21.802Z,20.64
2019-05-17T10:49:49.696Z,20.62
2019-05-17T10:52:17.375Z,20.61
2019-05-17T10:54:44.887Z,20.62
2019-05-17T10:57:12.342Z,20.65
2019-05-17T10:59:39.875Z,20.65
2019-05-17T11:02:09.790Z,20.66
2019-05-17T11:04:36.862Z,20.68
2019-05-17T11:07:04.415Z,20.63
2019-05-17T11:09:32.004Z,20.63
2019-05-17T11:11:59.522Z,20.66
2019-05-17T11:14:26.957Z,20.70
2019-05-17T11:16:54.435Z,20.75
2019-05-17T11:19:21.912Z,20.80
2019-05-17T11:21:49.409Z,20.85
2019-05-17T11:24:16.853Z,20.89
2019-05-17T11:26:44.348Z,20.91
2019-05-17T11:29:11.857Z,20.90
2019-05-17T11:31:39.320Z,20.86
2019-05-17T11:34:06.780Z,20.84
2019-05-17T11:36:34.306Z,20.85
2019-05-17T11:39:01.969Z,20.93
2019-05-17T11:41:29.408Z,20.93
2019-05-17T11:43:56.884Z,20.90
2019-05-17T11:46:35.652Z,20.89
2019-05-17T11:48:53.850Z,20.91
2019-05-17T11:51:21.305Z,20.91
2019-05-17T11:53:48.791Z,20.98
2019-05-17T11:56:16.261Z,21.00
2019-05-17T11:58:43.770Z,21.04
2019-05-17T12:01:11.339Z,21.07
2019-05-17T12:03:38.808Z,21.06
2019-05-17T12:06:06.393Z,21.13
2019-05-17T12:08:33.856Z,21.21
2019-05-17T12:11:01.798Z,21.26
2019-05-17T12:13:29.338Z,21.23
2019-05-17T12:15:56.806Z,21.22
2019-05-17T12:18:24.287Z,21.16
2019-05-17T12:20:51.751Z,21.12
2019-05-17T12:23:19.240Z,21.09
2019-05-17T12:25:46.740Z,21.09
2019-05-17T12:28:14.256Z,21.10
2019-05-17T12:30:41.706Z,21.11
2019-05-17T12:33:09.208Z,21.10
2019-05-17T12:35:36.655Z,21.12
2019-05-17T12:38:04.127Z,21.14
2019-05-17T12:40:31.579Z,21.21
2019-05-17T12:42:59.065Z,21.27
2019-05-17T12:45:26.574Z,21.32
2019-05-17T12:47:54.041Z,21.34
2019-05-17T12:50:21.522Z,21.34
2019-05-17T12:52:48.967Z,21.34
2019-05-17T12:55:17.167Z,21.33
2019-05-17T12:57:44.691Z,21.33
2019-05-17T13:00:12.211Z,21.33
2019-05-17T13:02:39.703Z,21.33
2019-05-17T13:05:07.333Z,21.35
2019-05-17T13:07:34.841Z,21.37
2019-05-17T13:10:02.443Z,21.39
2019-05-17T13:12:29.951Z,21.38
2019-05-17T13:14:57.453Z,21.38
2019-05-17T13:17:24.951Z,21.38
2019-05-17T13:19:52.415Z,21.39
2019-05-17T13:22:20.089Z,21.38
2019-05-17T13:24:47.598Z,21.37
2019-05-17T13:27:15.107Z,21.34
2019-05-17T13:29:42.583Z,21.32
2019-05-17T13:32:10.067Z,21.31
2019-05-17T13:34:37.509Z,21.29
2019-05-17T13:37:04.995Z,21.28
2019-05-17T13:39:32.452Z,21.28
2019-05-17T13:41:59.939Z,21.27
2019-05-17T13:44:27.392Z,21.26
2019-05-17T13:46:55.026Z,21.27
2019-05-17T13:49:22.497Z,21.30
2019-05-17T13:51:49.984Z,21.35
2019-05-17T13:54:17.453Z,21.40
2019-05-17T13:56:44.911Z,21.43
2019-05-17T13:59:12.422Z,21.44
2019-05-17T14:01:39.904Z,21.42
2019-05-17T14:04:07.378Z,21.41
2019-05-17T14:06:34.947Z,21.38
2019-05-17T14:09:02.557Z,21.38
2019-05-17T14:11:30.016Z,21.35
2019-05-17T14:13:57.510Z,21.35
2019-05-17T14:16:24.972Z,21.35
2019-05-17T14:18:52.449Z,21.35
2019-05-17T14:21:19.946Z,21.35
2019-05-17T14:23:47.521Z,21.35
2019-05-17T14:26:15.108Z,21.33
2019-05-17T14:28:42.565Z,21.30
2019-05-17T14:31:10.016Z,21.29
2019-05-17T14:33:37.521Z,21.29
2019-05-17T14:36:04.980Z,21.30
2019-05-17T14:38:32.471Z,21.40
2019-05-17T14:41:06.783Z,21.43
2019-05-17T14:43:31.678Z,21.45
2019-05-17T14:45:58.691Z,21.47
2019-05-17T14:48:26.140Z,21.50
2019-05-17T14:50:53.625Z,21.54
2019-05-17T14:53:21.084Z,21.56
2019-05-17T14:55:48.601Z,21.57
2019-05-17T14:58:16.048Z,21.56
2019-05-17T15:00:43.524Z,21.54
2019-05-17T15:03:11.008Z,21.56
2019-05-17T15:05:38.496Z,21.54
2019-05-17T15:08:05.947Z,21.54
2019-05-17T15:10:33.546Z,21.52
2019-05-17T15:13:01.644Z,21.50
2019-05-17T15:15:29.344Z,21.49
2019-05-17T15:17:56.844Z,21.48
2019-05-17T15:20:24.304Z,21.51
2019-05-17T15:22:51.806Z,21.52
2019-05-17T15:25:19.267Z,21.55
2019-05-17T15:27:46.731Z,21.57
2019-05-17T15:30:14.231Z,21.60
2019-05-17T15:32:41.710Z,21.66
2019-05-17T15:35:09.378Z,21.70
2019-05-17T15:37:36.834Z,21.73
2019-05-17T15:40:04.699Z,21.76
2019-05-17T15:42:43.554Z,21.77
2019-05-17T15:45:02.146Z,21.79
2019-05-17T15:47:30.066Z,21.80
2019-05-17T15:49:57.923Z,21.83
2019-05-17T15:52:25.488Z,21.86
2019-05-17T15:54:53.331Z,21.94
2019-05-17T15:57:20.907Z,21.95
2019-05-17T15:59:48.698Z,21.95
2019-05-17T16:02:16.430Z,21.92
2019-05-17T16:04:44.136Z,21.99
2019-05-17T16:07:11.800Z,22.04
2019-05-17T16:09:39.612Z,22.13
2019-05-17T16:12:07.546Z,22.14
2019-05-17T16:14:35.217Z,22.15
2019-05-17T16:17:03.085Z,22.11
2019-05-17T16:19:30.714Z,22.10
2019-05-17T16:21:58.457Z,22.13
2019-05-17T16:24:26.051Z,22.16
2019-05-17T16:26:53.859Z,22.20
2019-05-17T16:29:21.625Z,22.20
2019-05-17T16:31:49.348Z,22.17
2019-05-17T16:34:17.031Z,22.16
2019-05-17T16:36:44.839Z,22.19
2019-05-17T16:39:12.428Z,22.24
2019-05-17T16:41:40.168Z,22.26
2019-05-17T16:44:08.044Z,22.27
2019-05-17T16:46:35.710Z,22.32
2019-05-17T16:49:03.528Z,22.33
2019-05-17T16:51:31.209Z,22.29
2019-05-17T16:53:59.109Z,22.26
2019-05-17T16:56:26.687Z,22.23
2019-05-17T16:58:54.254Z,22.19
2019-05-17T17:01:23.113Z,22.17
2019-05-17T17:03:50.810Z,22.16
2019-05-17T17:06:18.481Z,22.12
2019-05-17T17:08:46.273Z,22.10
2019-05-17T17:11:14.121Z,22.09
2019-05-17T17:13:41.993Z,22.09
2019-05-17T17:16:09.764Z,22.08
2019-05-17T17:18:37.576Z,22.07
2019-05-17T17:21:05.478Z,22.07
2019-05-17T17:23:33.010Z,22.08
2019-05-17T17:26:00.846Z,22.08
2019-05-17T17:28:28.577Z,22.08
2019-05-17T17:30:56.330Z,22.07
2019-05-17T17:33:24.048Z,22.06
2019-05-17T17:35:51.816Z,22.06
2019-05-17T17:38:19.581Z,22.05
2019-05-17T17:40:47.355Z,22.03
2019-05-17T17:43:15.936Z,22.02
2019-05-17T17:45:43.715Z,22.11
2019-05-17T17:48:11.460Z,22.34
2019-05-17T17:50:39.152Z,22.48
2019-05-17T17:53:06.922Z,22.58
2019-05-17T17:55:34.896Z,22.62
2019-05-17T17:58:02.617Z,22.61
2019-05-17T18:00:30.646Z,22.44
2019-05-17T18:02:58.478Z,22.29
2019-05-17T18:05:26.111Z,22.21
2019-05-17T18:07:53.916Z,22.16
2019-05-17T18:10:26.089Z,22.11
2019-05-17T18:12:53.785Z,22.09
2019-05-17T18:15:24.389Z,22.16
2019-05-17T18:17:52.033Z,22.26
2019-05-17T18:20:19.859Z,22.35
2019-05-17T18:22:47.631Z,22.41
2019-05-17T18:25:15.872Z,22.42
2019-05-17T18:27:43.727Z,22.42
2019-05-17T18:30:11.448Z,22.36
2019-05-17T18:32:39.219Z,22.27
2019-05-17T18:35:07.196Z,22.25
2019-05-17T18:37:34.874Z,22.27
2019-05-17T18:40:02.632Z,22.29
2019-05-17T18:42:30.294Z,22.28
2019-05-17T18:44:58.255Z,22.26
2019-05-17T18:47:26.144Z,22.20
2019-05-17T18:49:54.015Z,22.15
2019-05-17T18:52:21.770Z,22.10
2019-05-17T18:54:49.557Z,22.08
2019-05-17T18:57:17.627Z,22.06
2019-05-17T18:59:45.696Z,22.04
2019-05-17T19:02:13.422Z,22.02
2019-05-17T19:04:41.350Z,21.99
2019-05-17T19:07:09.321Z,21.96
2019-05-17T19:09:37.056Z,21.94
2019-05-17T19:12:04.844Z,21.92
2019-05-17T19:14:42.590Z,21.89
2019-05-17T19:17:02.554Z,21.84
2019-05-17T19:19:30.458Z,21.80
2019-05-17T19:21:58.060Z,21.74
2019-05-17T19:24:25.984Z,21.69
2019-05-17T19:26:53.733Z,21.65
2019-05-17T19:29:21.609Z,21.60
2019-05-17T19:31:49.377Z,21.52
2019-05-17T19:34:17.349Z,21.44
2019-05-17T19:36:45.340Z,21.39
2019-05-17T19:39:13.296Z,21.33
2019-05-17T19:41:41.067Z,21.30
2019-05-17T19:44:08.865Z,21.27
2019-05-17T19:46:36.914Z,21.23
2019-05-17T19:49:04.991Z,21.19
2019-05-17T19:51:32.890Z,21.15
2019-05-17T19:54:00.734Z,21.13
2019-05-17T19:56:28.707Z,21.10
2019-05-17T19:58:56.579Z,21.08
2019-05-17T20:01:24.136Z,21.06
2019-05-17T20:03:51.631Z,21.02
2019-05-17T20:06:19.264Z,20.98
2019-05-17T20:08:46.805Z,20.94
2019-05-17T20:11:14.354Z,20.90
2019-05-17T20:13:42.119Z,20.87
2019-05-17T20:16:09.717Z,20.84
2019-05-17T20:18:37.266Z,20.82
2019-05-17T20:21:04.791Z,20.77
2019-05-17T20:23:32.314Z,20.76
2019-05-17T20:25:59.839Z,20.73
2019-05-17T20:28:27.538Z,20.70
2019-05-17T20:30:55.012Z,20.67
2019-05-17T20:33:22.593Z,20.64
2019-05-17T20:35:50.140Z,20.61
2019-05-17T20:38:17.738Z,20.58
2019-05-17T20:40:45.241Z,20.55
2019-05-17T20:43:12.794Z,20.51
2019-05-17T20:45:40.383Z,20.48
2019-05-17T20:48:07.854Z,20.47
2019-05-17T20:50:35.336Z,20.43
2019-05-17T20:53:16.561Z,20.41
2019-05-17T20:55:32.283Z,20.39
2019-05-17T20:57:59.771Z,20.38
2019-05-17T21:00:27.261Z,20.34
2019-05-17T21:02:54.768Z,20.32
2019-05-17T21:05:22.266Z,20.30
2019-05-17T21:07:50.143Z,20.28
2019-05-17T21:10:18.014Z,20.25
2019-05-17T21:12:45.679Z,20.23
2019-05-17T21:15:13.297Z,20.21
2019-05-17T21:17:41.286Z,20.20
2019-05-17T21:20:09.100Z,20.16
2019-05-17T21:22:36.765Z,20.16
2019-05-17T21:25:04.818Z,20.13
2019-05-17T21:27:32.441Z,20.12
2019-05-17T21:29:59.918Z,20.10
2019-05-17T21:32:27.408Z,20.08
2019-05-17T21:34:54.885Z,20.06
2019-05-17T21:37:22.331Z,20.05
2019-05-17T21:39:49.837Z,20.04
2019-05-17T21:42:17.306Z,20.02
2019-05-17T21:44:44.844Z,20.01
2019-05-17T21:47:12.396Z,19.98
2019-05-17T21:49:39.921Z,19.96
2019-05-17T21:52:07.379Z,19.94
2019-05-17T21:54:34.983Z,19.93
2019-05-17T21:57:02.570Z,19.92
2019-05-17T21:59:30.233Z,19.90
2019-05-17T22:01:57.830Z,19.90
2019-05-17T22:04:27.084Z,19.88
2019-05-17T22:06:54.732Z,19.87
2019-05-17T22:09:22.203Z,19.84
2019-05-17T22:11:51.673Z,19.83
2019-05-17T22:14:19.161Z,19.82
2019-05-17T22:16:46.801Z,19.80
2019-05-17T22:19:14.252Z,19.80
2019-05-17T22:21:41.709Z,19.78
2019-05-17T22:24:09.345Z,19.76
2019-05-17T22:26:36.925Z,19.76
2019-05-17T22:29:04.409Z,19.74
2019-05-17T22:31:31.893Z,19.73
2019-05-17T22:33:59.383Z,19.72
2019-05-17T22:36:26.822Z,19.70
2019-05-17T22:38:54.648Z,19.69
2019-05-17T22:41:22.362Z,19.69
2019-05-17T22:43:51.503Z,19.68
2019-05-17T22:46:33.545Z,19.66
2019-05-17T22:48:48.474Z,19.65
2019-05-17T22:51:15.929Z,19.64
2019-05-17T22:53:43.378Z,19.63
2019-05-17T22:56:10.860Z,19.61
2019-05-17T22:58:38.355Z,19.61
2019-05-17T23:01:06.009Z,19.59
2019-05-17T23:03:33.784Z,19.57
2019-05-17T23:06:01.654Z,19.57
2019-05-17T23:08:29.487Z,19.56
2019-05-17T23:10:57.145Z,19.55
2019-05-17T23:13:26.264Z,19.53
2019-05-17T23:16:00.564Z,19.53
2019-05-17T23:18:28.514Z,19.51
2019-05-17T23:20:56.009Z,19.51
2019-05-17T23:23:23.715Z,19.49
2019-05-17T23:25:51.454Z,19.49
2019-05-17T23:28:19.353Z,19.49
2019-05-17T23:30:47.228Z,19.47
2019-05-17T23:33:15.001Z,19.46
2019-05-17T23:35:42.767Z,19.45
2019-05-17T23:38:10.436Z,19.44
2019-05-17T23:40:38.205Z,19.43
2019-05-17T23:43:05.871Z,19.42
2019-05-17T23:45:33.637Z,19.42
2019-05-17T23:48:01.291Z,19.42
2019-05-17T23:50:28.972Z,19.41
2019-05-17T23:52:56.829Z,19.40
2019-05-17T23:55:24.616Z,19.38
2019-05-17T23:57:52.181Z,19.37
